AFR468 LFPG-SAEZ
Flight info
| Callsign | AFR468 |
|---|---|
| Flight time | N/A |
| Altitude | 35000 |
| Route | LGL UT176 TERPO UN461 AKEMO DCT RIVAK/M085F340 DCT SIVIR DCT PASAS DCT 42N020W/M085F360 40N025W 35N032W 30N036W/M085F380 25N039W 20N043W/N0493F380 15N044W 11N045W DCT SAPGO/N0484F400 UZ54 BEL DCT LUIZA UZ91 XINGU DCT SIGAX DCT VUDIR UM799 DIKAX DCT ARVOP/N0482F410 UL216 EGELU/N0487F400 UM544 VAS UP526 REPAM UZ103 DALAB UL793 GUA UZ129 PAGON PAGON7X |
| Aircraft | A359/H-SDE2E3GHIJ3J4J5LM1ORWXY/LB1D1 |
Departure
| Time | N/A |
|---|---|
| Airport | Charles de Gaulle International Airport (LFPG) |
Arrival
| Time | 2026-04-28 19:11 |
|---|---|
| Airport | Ezeiza International Airport - Ministro Pistarini (SAEZ) |
| Time | Latitude | Longitude | Altitude | Speed | Heading |
|---|---|---|---|---|---|
| 2026-04-28 13:26 | 5.78526 | -45.00006 | 35007 ft | 496 kts | 178° |
| 2026-04-28 13:27 | 5.75079 | -45.00006 | 35006 ft | 495 kts | 178° |
| 2026-04-28 13:27 | 5.68254 | -45.00002 | 35010 ft | 495 kts | 178° |
| 2026-04-28 13:28 | 5.61361 | -44.99997 | 35010 ft | 495 kts | 178° |
| 2026-04-28 13:28 | 5.54541 | -44.99997 | 35010 ft | 495 kts | 178° |
| 2026-04-28 13:29 | 5.47656 | -44.99999 | 35008 ft | 495 kts | 178° |
| 2026-04-28 13:29 | 5.40777 | -44.99999 | 35009 ft | 494 kts | 178° |
| 2026-04-28 13:30 | 5.33898 | -44.99998 | 35012 ft | 494 kts | 178° |
| 2026-04-28 13:30 | 5.28177 | -44.99996 | 35010 ft | 494 kts | 178° |
| 2026-04-28 13:31 | 5.17874 | -44.99999 | 35007 ft | 494 kts | 178° |
| 2026-04-28 13:31 | 5.11001 | -45.00004 | 35002 ft | 494 kts | 178° |
| 2026-04-28 13:32 | 5.07630 | -45.00004 | 35213 ft | 493 kts | 178° |
| 2026-04-28 13:32 | 5.04202 | -45.00003 | 35548 ft | 491 kts | 178° |
| 2026-04-28 13:32 | 5.00792 | -45.00006 | 35835 ft | 490 kts | 178° |
| 2026-04-28 13:32 | 4.97390 | -45.00243 | 36066 ft | 491 kts | 186° |
| 2026-04-28 13:33 | 4.94039 | -45.00955 | 36303 ft | 494 kts | 194° |
| 2026-04-28 13:33 | 4.90830 | -45.02198 | 36518 ft | 496 kts | 204° |
| 2026-04-28 13:33 | 4.87756 | -45.03792 | 36777 ft | 496 kts | 206° |
| 2026-04-28 13:33 | 4.84744 | -45.05478 | 37038 ft | 495 kts | 207° |
| 2026-04-28 13:34 | 4.81763 | -45.07204 | 37283 ft | 495 kts | 208° |
| 2026-04-28 13:34 | 4.78792 | -45.08949 | 37536 ft | 494 kts | 208° |
| 2026-04-28 13:34 | 4.75831 | -45.10686 | 37780 ft | 493 kts | 208° |
| 2026-04-28 13:34 | 4.72911 | -45.12388 | 38009 ft | 492 kts | 208° |
| 2026-04-28 13:35 | 4.69905 | -45.14124 | 38239 ft | 491 kts | 208° |
| 2026-04-28 13:35 | 4.66980 | -45.15804 | 38469 ft | 490 kts | 208° |
| 2026-04-28 13:35 | 4.64028 | -45.17494 | 38699 ft | 489 kts | 208° |
| 2026-04-28 13:35 | 4.61074 | -45.19182 | 38889 ft | 488 kts | 207° |
| 2026-04-28 13:36 | 4.58130 | -45.20862 | 39076 ft | 487 kts | 208° |
| 2026-04-28 13:36 | 4.55196 | -45.22539 | 39257 ft | 485 kts | 208° |
| 2026-04-28 13:36 | 4.52264 | -45.24218 | 39423 ft | 485 kts | 208° |
| 2026-04-28 13:36 | 4.49343 | -45.25899 | 39576 ft | 484 kts | 208° |
| 2026-04-28 13:37 | 4.46422 | -45.27572 | 39733 ft | 483 kts | 208° |
| 2026-04-28 13:37 | 4.43504 | -45.29239 | 39863 ft | 483 kts | 208° |
| 2026-04-28 13:37 | 4.40582 | -45.30903 | 39986 ft | 483 kts | 208° |
| 2026-04-28 13:37 | 4.37661 | -45.32570 | 40011 ft | 483 kts | 208° |
| 2026-04-28 13:38 | 4.31824 | -45.35895 | 40009 ft | 483 kts | 208° |
| 2026-04-28 13:38 | 4.25979 | -45.39221 | 40012 ft | 483 kts | 208° |
| 2026-04-28 13:39 | 4.20141 | -45.42552 | 40005 ft | 483 kts | 208° |
| 2026-04-28 13:39 | 4.14306 | -45.45888 | 40008 ft | 483 kts | 208° |
| 2026-04-28 13:40 | 4.08459 | -45.49223 | 40009 ft | 483 kts | 208° |
| 2026-04-28 13:40 | 4.02615 | -45.52557 | 40008 ft | 483 kts | 208° |
| 2026-04-28 13:41 | 3.96814 | -45.55868 | 40009 ft | 483 kts | 208° |
| 2026-04-28 13:41 | 3.90961 | -45.59206 | 40009 ft | 483 kts | 208° |
| 2026-04-28 13:42 | 3.85113 | -45.62540 | 40010 ft | 484 kts | 208° |
| 2026-04-28 13:42 | 3.79266 | -45.65867 | 40011 ft | 483 kts | 208° |
| 2026-04-28 13:43 | 3.73416 | -45.69201 | 40011 ft | 484 kts | 208° |
| 2026-04-28 13:43 | 3.67582 | -45.72479 | 40009 ft | 483 kts | 207° |
| 2026-04-28 13:44 | 3.61673 | -45.75706 | 40012 ft | 483 kts | 207° |
| 2026-04-28 13:44 | 3.55760 | -45.78920 | 40006 ft | 484 kts | 207° |
| 2026-04-28 13:45 | 3.49848 | -45.82137 | 40008 ft | 484 kts | 207° |
| 2026-04-28 13:45 | 3.43933 | -45.85363 | 39998 ft | 484 kts | 207° |
| 2026-04-28 13:46 | 3.38010 | -45.88593 | 40009 ft | 484 kts | 207° |
| 2026-04-28 13:46 | 3.32093 | -45.91830 | 40009 ft | 484 kts | 207° |
| 2026-04-28 13:47 | 3.26178 | -45.95057 | 40009 ft | 485 kts | 207° |
| 2026-04-28 13:47 | 3.20247 | -45.98287 | 40004 ft | 485 kts | 207° |
| 2026-04-28 13:48 | 3.14364 | -46.01495 | 40001 ft | 485 kts | 207° |
| 2026-04-28 13:48 | 3.08441 | -46.04725 | 39999 ft | 485 kts | 207° |
| 2026-04-28 13:49 | 3.02512 | -46.07954 | 40007 ft | 485 kts | 207° |
| 2026-04-28 13:49 | 2.96587 | -46.11187 | 40000 ft | 485 kts | 207° |
| 2026-04-28 13:50 | 2.90659 | -46.14418 | 40007 ft | 485 kts | 207° |
| 2026-04-28 13:50 | 2.84735 | -46.17649 | 40005 ft | 485 kts | 207° |
| 2026-04-28 13:51 | 2.78810 | -46.20881 | 40004 ft | 485 kts | 207° |
| 2026-04-28 13:51 | 2.72870 | -46.24113 | 41376 ft | 487 kts | 208° |
| 2026-04-28 13:52 | 2.69882 | -46.25728 | 41142 ft | 490 kts | 208° |
| 2026-04-28 13:52 | 2.66881 | -46.27351 | 40900 ft | 491 kts | 208° |
| 2026-04-28 13:52 | 2.63876 | -46.28980 | 40647 ft | 491 kts | 208° |
| 2026-04-28 13:52 | 2.60874 | -46.30611 | 40401 ft | 491 kts | 208° |
| 2026-04-28 13:53 | 2.57869 | -46.32247 | 40153 ft | 491 kts | 208° |
| 2026-04-28 13:53 | 2.54869 | -46.33882 | 40011 ft | 491 kts | 208° |
| 2026-04-28 13:53 | 2.48882 | -46.37167 | 40001 ft | 491 kts | 209° |
| 2026-04-28 13:54 | 2.42886 | -46.40454 | 40001 ft | 491 kts | 208° |
| 2026-04-28 13:54 | 2.36929 | -46.43706 | 40003 ft | 491 kts | 208° |
| 2026-04-28 13:55 | 2.30921 | -46.46978 | 40002 ft | 491 kts | 208° |
| 2026-04-28 13:55 | 2.24920 | -46.50245 | 40001 ft | 491 kts | 208° |
| 2026-04-28 13:56 | 2.18921 | -46.53511 | 40000 ft | 491 kts | 208° |
| 2026-04-28 13:56 | 2.12915 | -46.56782 | 39999 ft | 491 kts | 208° |
| 2026-04-28 13:57 | 2.06918 | -46.60047 | 39999 ft | 491 kts | 208° |
| 2026-04-28 13:57 | 2.00916 | -46.63315 | 40000 ft | 491 kts | 208° |
| 2026-04-28 13:58 | 1.94913 | -46.66581 | 40001 ft | 491 kts | 208° |
| 2026-04-28 13:58 | 1.88911 | -46.69847 | 39999 ft | 491 kts | 208° |
| 2026-04-28 13:59 | 1.82949 | -46.73091 | 40002 ft | 491 kts | 208° |
| 2026-04-28 13:59 | 1.76946 | -46.76358 | 40001 ft | 491 kts | 208° |
| 2026-04-28 14:00 | 1.70943 | -46.79624 | 40003 ft | 491 kts | 208° |
| 2026-04-28 14:00 | 1.64938 | -46.82891 | 39999 ft | 491 kts | 208° |
| 2026-04-28 14:01 | 1.58940 | -46.86153 | 40001 ft | 491 kts | 208° |
| 2026-04-28 14:01 | 1.52934 | -46.89420 | 40002 ft | 491 kts | 208° |
| 2026-04-28 14:02 | 1.46932 | -46.92685 | 40002 ft | 491 kts | 208° |
| 2026-04-28 14:02 | 1.40931 | -46.95949 | 40000 ft | 491 kts | 208° |
| 2026-04-28 14:03 | 1.34929 | -46.99213 | 40000 ft | 491 kts | 208° |
| 2026-04-28 14:03 | 1.28927 | -47.02477 | 40000 ft | 491 kts | 208° |
| 2026-04-28 14:04 | 1.22965 | -47.05719 | 40001 ft | 491 kts | 208° |
| 2026-04-28 14:04 | 1.16965 | -47.08982 | 39999 ft | 491 kts | 208° |
| 2026-04-28 14:05 | 1.10974 | -47.12252 | 38645 ft | 490 kts | 205° |
| 2026-04-28 14:05 | 1.07991 | -47.13892 | 38874 ft | 488 kts | 205° |
| 2026-04-28 14:05 | 1.05015 | -47.15519 | 39107 ft | 486 kts | 205° |
| 2026-04-28 14:06 | 1.02047 | -47.17131 | 39325 ft | 484 kts | 205° |
| 2026-04-28 14:06 | 0.99093 | -47.18729 | 39550 ft | 482 kts | 205° |
| 2026-04-28 14:06 | 0.96110 | -47.20341 | 39788 ft | 480 kts | 205° |
| 2026-04-28 14:06 | 0.93217 | -47.21907 | 39973 ft | 479 kts | 205° |
| 2026-04-28 14:07 | 0.87330 | -47.25099 | 39995 ft | 485 kts | 205° |
| 2026-04-28 14:07 | 0.81367 | -47.28339 | 39995 ft | 490 kts | 205° |
| 2026-04-28 14:08 | 0.75377 | -47.31598 | 39999 ft | 490 kts | 206° |
| 2026-04-28 14:08 | 0.69386 | -47.34858 | 40000 ft | 490 kts | 206° |
| 2026-04-28 14:09 | 0.63401 | -47.38113 | 40004 ft | 490 kts | 206° |
| 2026-04-28 14:09 | 0.57419 | -47.41365 | 39999 ft | 489 kts | 206° |
| 2026-04-28 14:10 | 0.51436 | -47.44618 | 39998 ft | 489 kts | 206° |
| 2026-04-28 14:10 | 0.45453 | -47.47870 | 39997 ft | 490 kts | 206° |
| 2026-04-28 14:11 | 0.39470 | -47.51124 | 40002 ft | 490 kts | 206° |
| 2026-04-28 14:11 | 0.33481 | -47.54380 | 39998 ft | 490 kts | 206° |
| 2026-04-28 14:12 | 0.27496 | -47.57633 | 39997 ft | 490 kts | 206° |
| 2026-04-28 14:12 | 0.21549 | -47.60866 | 40001 ft | 490 kts | 206° |
| 2026-04-28 14:13 | 0.15553 | -47.64126 | 40000 ft | 490 kts | 206° |
| 2026-04-28 14:13 | 0.09562 | -47.67383 | 40001 ft | 490 kts | 206° |
| 2026-04-28 14:14 | 0.03566 | -47.70642 | 40004 ft | 491 kts | 206° |
| 2026-04-28 14:14 | -0.02433 | -47.73904 | 40005 ft | 491 kts | 206° |
| 2026-04-28 14:15 | -0.08439 | -47.77168 | 40001 ft | 491 kts | 206° |
| 2026-04-28 14:15 | -0.14444 | -47.80433 | 40001 ft | 491 kts | 206° |
| 2026-04-28 14:16 | -0.20447 | -47.83697 | 39998 ft | 491 kts | 206° |
| 2026-04-28 14:16 | -0.26453 | -47.86962 | 40001 ft | 491 kts | 207° |
| 2026-04-28 14:17 | -0.32453 | -47.90224 | 39999 ft | 491 kts | 207° |
| 2026-04-28 14:17 | -0.38458 | -47.93489 | 40004 ft | 491 kts | 207° |
| 2026-04-28 14:18 | -0.43450 | -47.96202 | 40002 ft | 491 kts | 207° |
| 2026-04-28 14:18 | -0.50430 | -47.99997 | 39999 ft | 492 kts | 207° |
| 2026-04-28 14:19 | -0.56438 | -48.03264 | 40003 ft | 492 kts | 207° |
| 2026-04-28 14:19 | -0.61483 | -48.06007 | 40001 ft | 493 kts | 207° |
| 2026-04-28 14:20 | -0.67505 | -48.09281 | 40000 ft | 493 kts | 207° |
| 2026-04-28 14:20 | -0.73490 | -48.12535 | 40003 ft | 493 kts | 207° |
| 2026-04-28 14:21 | -0.79525 | -48.15817 | 40005 ft | 493 kts | 207° |
| 2026-04-28 14:21 | -0.85553 | -48.19094 | 40002 ft | 493 kts | 207° |
| 2026-04-28 14:22 | -0.91587 | -48.22374 | 39989 ft | 494 kts | 207° |
| 2026-04-28 14:22 | -0.97622 | -48.25655 | 40002 ft | 494 kts | 207° |
| 2026-04-28 14:23 | -1.03660 | -48.28939 | 40004 ft | 494 kts | 207° |
| 2026-04-28 14:23 | -1.09692 | -48.32218 | 40004 ft | 494 kts | 207° |
| 2026-04-28 14:24 | -1.15727 | -48.35500 | 40003 ft | 493 kts | 207° |
| 2026-04-28 14:24 | -1.21755 | -48.38780 | 39997 ft | 493 kts | 207° |
| 2026-04-28 14:25 | -1.27777 | -48.42054 | 39991 ft | 493 kts | 207° |
| 2026-04-28 14:25 | -1.33803 | -48.45330 | 39993 ft | 493 kts | 207° |
| 2026-04-28 14:26 | -1.39828 | -48.48589 | 39994 ft | 492 kts | 207° |
| 2026-04-28 14:26 | -1.45901 | -48.51740 | 39994 ft | 492 kts | 206° |
| 2026-04-28 14:27 | -1.52006 | -48.54845 | 39994 ft | 492 kts | 206° |
| 2026-04-28 14:27 | -1.58112 | -48.57950 | 39995 ft | 492 kts | 206° |
| 2026-04-28 14:28 | -1.64204 | -48.61068 | 40004 ft | 492 kts | 206° |
| 2026-04-28 14:28 | -1.70296 | -48.64193 | 39999 ft | 492 kts | 206° |
| 2026-04-28 14:29 | -1.76390 | -48.67321 | 40004 ft | 492 kts | 206° |
| 2026-04-28 14:29 | -1.82482 | -48.70448 | 40000 ft | 493 kts | 206° |
| 2026-04-28 14:30 | -1.88545 | -48.73560 | 40005 ft | 493 kts | 206° |
| 2026-04-28 14:30 | -1.94688 | -48.76713 | 40002 ft | 493 kts | 206° |
| 2026-04-28 14:31 | -2.00781 | -48.79868 | 39999 ft | 493 kts | 207° |
| 2026-04-28 14:31 | -2.06777 | -48.83057 | 40003 ft | 493 kts | 207° |
| 2026-04-28 14:32 | -2.12855 | -48.86310 | 40005 ft | 493 kts | 207° |
| 2026-04-28 14:32 | -2.18906 | -48.89538 | 40004 ft | 493 kts | 207° |
| 2026-04-28 14:33 | -2.24964 | -48.92764 | 40002 ft | 493 kts | 207° |
| 2026-04-28 14:33 | -2.31016 | -48.95984 | 40009 ft | 492 kts | 208° |
| 2026-04-28 14:34 | -2.40084 | -49.00810 | 40001 ft | 492 kts | 208° |
| 2026-04-28 14:35 | -2.46121 | -49.04025 | 40005 ft | 491 kts | 208° |
| 2026-04-28 14:35 | -2.52154 | -49.07238 | 40003 ft | 491 kts | 208° |
| 2026-04-28 14:36 | -2.58185 | -49.10450 | 40005 ft | 491 kts | 208° |
| 2026-04-28 14:36 | -2.64177 | -49.13641 | 40007 ft | 491 kts | 208° |
| 2026-04-28 14:37 | -2.70206 | -49.16853 | 40005 ft | 491 kts | 208° |
| 2026-04-28 14:37 | -2.76232 | -49.20063 | 40004 ft | 491 kts | 208° |
| 2026-04-28 14:38 | -2.82269 | -49.23279 | 40006 ft | 491 kts | 208° |
| 2026-04-28 14:38 | -2.88302 | -49.26494 | 40010 ft | 492 kts | 208° |
| 2026-04-28 14:39 | -2.94347 | -49.29716 | 40014 ft | 492 kts | 208° |
| 2026-04-28 14:39 | -3.00391 | -49.32937 | 40004 ft | 492 kts | 208° |
| 2026-04-28 14:40 | -3.06439 | -49.36161 | 40014 ft | 492 kts | 208° |
| 2026-04-28 14:40 | -3.12480 | -49.39382 | 40007 ft | 492 kts | 208° |
| 2026-04-28 14:41 | -3.18528 | -49.42606 | 40010 ft | 492 kts | 208° |
| 2026-04-28 14:41 | -3.24571 | -49.45828 | 40012 ft | 492 kts | 208° |
| 2026-04-28 14:42 | -3.30616 | -49.49052 | 40010 ft | 492 kts | 208° |
| 2026-04-28 14:42 | -3.36667 | -49.52280 | 40010 ft | 492 kts | 208° |
| 2026-04-28 14:43 | -3.42671 | -49.55482 | 40009 ft | 492 kts | 208° |
| 2026-04-28 14:43 | -3.48713 | -49.58706 | 40012 ft | 492 kts | 208° |
| 2026-04-28 14:44 | -3.54754 | -49.61931 | 40009 ft | 492 kts | 208° |
| 2026-04-28 14:44 | -3.60800 | -49.65158 | 40006 ft | 492 kts | 208° |
| 2026-04-28 14:45 | -3.66850 | -49.68389 | 40011 ft | 492 kts | 208° |
| 2026-04-28 14:45 | -3.72890 | -49.71614 | 40011 ft | 492 kts | 208° |
| 2026-04-28 14:46 | -3.78930 | -49.74840 | 40010 ft | 492 kts | 208° |
| 2026-04-28 14:46 | -3.84969 | -49.78066 | 40011 ft | 492 kts | 208° |
| 2026-04-28 14:47 | -3.91013 | -49.81295 | 40002 ft | 492 kts | 208° |
| 2026-04-28 14:47 | -3.97051 | -49.84521 | 40011 ft | 492 kts | 208° |
| 2026-04-28 14:48 | -4.03054 | -49.87729 | 40011 ft | 492 kts | 208° |
| 2026-04-28 14:48 | -4.09088 | -49.90955 | 40013 ft | 491 kts | 208° |
| 2026-04-28 14:49 | -4.15119 | -49.94179 | 40013 ft | 491 kts | 208° |
| 2026-04-28 14:49 | -4.21149 | -49.97403 | 40015 ft | 491 kts | 208° |
| 2026-04-28 14:50 | -4.27178 | -50.00627 | 40013 ft | 491 kts | 208° |
| 2026-04-28 14:50 | -4.33212 | -50.03854 | 40005 ft | 491 kts | 208° |
| 2026-04-28 14:51 | -4.39237 | -50.07077 | 40013 ft | 491 kts | 208° |
| 2026-04-28 14:51 | -4.45269 | -50.10305 | 40016 ft | 491 kts | 208° |
| 2026-04-28 14:52 | -4.51285 | -50.13525 | 40019 ft | 490 kts | 208° |
| 2026-04-28 14:52 | -4.57306 | -50.16748 | 40012 ft | 490 kts | 208° |
| 2026-04-28 14:53 | -4.63325 | -50.19971 | 40019 ft | 490 kts | 208° |
| 2026-04-28 14:53 | -4.69344 | -50.23193 | 40013 ft | 490 kts | 208° |
| 2026-04-28 14:54 | -4.75360 | -50.26416 | 40020 ft | 490 kts | 208° |
| 2026-04-28 14:54 | -4.81368 | -50.29634 | 40011 ft | 490 kts | 208° |
| 2026-04-28 14:55 | -4.87342 | -50.32835 | 40015 ft | 489 kts | 208° |
| 2026-04-28 14:55 | -4.93352 | -50.36056 | 40021 ft | 489 kts | 208° |
| 2026-04-28 14:56 | -4.99351 | -50.39272 | 40022 ft | 489 kts | 208° |
| 2026-04-28 14:56 | -5.05358 | -50.42492 | 40022 ft | 489 kts | 208° |
| 2026-04-28 14:57 | -5.11350 | -50.45705 | 40021 ft | 489 kts | 208° |
| 2026-04-28 14:57 | -5.17346 | -50.48921 | 40022 ft | 488 kts | 208° |
| 2026-04-28 14:58 | -5.23336 | -50.52135 | 40019 ft | 488 kts | 208° |
| 2026-04-28 14:58 | -5.29317 | -50.55345 | 40021 ft | 488 kts | 208° |
| 2026-04-28 14:59 | -5.35306 | -50.58559 | 40021 ft | 488 kts | 208° |
| 2026-04-28 14:59 | -5.41290 | -50.61771 | 40028 ft | 488 kts | 208° |
| 2026-04-28 15:00 | -5.47275 | -50.64985 | 40024 ft | 488 kts | 208° |
| 2026-04-28 15:00 | -5.53263 | -50.68201 | 40023 ft | 488 kts | 208° |
| 2026-04-28 15:01 | -5.59243 | -50.71414 | 40018 ft | 488 kts | 208° |
| 2026-04-28 15:01 | -5.65227 | -50.74629 | 40024 ft | 488 kts | 208° |
| 2026-04-28 15:02 | -5.71173 | -50.77824 | 40026 ft | 488 kts | 208° |
| 2026-04-28 15:02 | -5.77158 | -50.81041 | 40026 ft | 488 kts | 208° |
| 2026-04-28 15:03 | -5.83139 | -50.84257 | 40025 ft | 488 kts | 208° |
| 2026-04-28 15:03 | -5.89121 | -50.87473 | 40022 ft | 488 kts | 208° |
| 2026-04-28 15:04 | -5.95106 | -50.90694 | 40008 ft | 487 kts | 208° |
| 2026-04-28 15:04 | -6.01080 | -50.93908 | 40009 ft | 487 kts | 208° |
| 2026-04-28 15:05 | -6.07049 | -50.97121 | 40023 ft | 487 kts | 208° |
| 2026-04-28 15:05 | -6.13027 | -51.00338 | 40007 ft | 487 kts | 208° |
| 2026-04-28 15:06 | -6.17990 | -51.03010 | 40012 ft | 486 kts | 208° |
| 2026-04-28 15:06 | -6.23953 | -51.06222 | 40009 ft | 486 kts | 208° |
| 2026-04-28 15:07 | -6.29904 | -51.09428 | 40011 ft | 485 kts | 208° |
| 2026-04-28 15:07 | -6.35853 | -51.12634 | 40010 ft | 486 kts | 208° |
| 2026-04-28 15:08 | -6.41819 | -51.15850 | 40007 ft | 486 kts | 208° |
| 2026-04-28 15:08 | -6.47788 | -51.19069 | 40006 ft | 487 kts | 208° |
| 2026-04-28 15:09 | -6.53770 | -51.22296 | 40006 ft | 488 kts | 208° |
| 2026-04-28 15:09 | -6.59720 | -51.25507 | 40004 ft | 489 kts | 208° |
| 2026-04-28 15:10 | -6.65720 | -51.28746 | 40004 ft | 490 kts | 208° |
| 2026-04-28 15:10 | -6.71732 | -51.31992 | 40004 ft | 491 kts | 208° |
| 2026-04-28 15:11 | -6.77747 | -51.35241 | 40003 ft | 491 kts | 208° |
| 2026-04-28 15:11 | -6.83766 | -51.38493 | 40001 ft | 491 kts | 208° |
| 2026-04-28 15:12 | -6.89789 | -51.41748 | 40000 ft | 491 kts | 208° |
| 2026-04-28 15:12 | -6.95801 | -51.45000 | 39995 ft | 491 kts | 208° |
| 2026-04-28 15:13 | -7.01818 | -51.48257 | 40002 ft | 491 kts | 208° |
| 2026-04-28 15:13 | -7.07835 | -51.51515 | 39999 ft | 491 kts | 208° |
| 2026-04-28 15:14 | -7.13839 | -51.54797 | 40005 ft | 491 kts | 208° |
| 2026-04-28 15:14 | -7.19796 | -51.58163 | 39999 ft | 491 kts | 209° |
| 2026-04-28 15:15 | -7.25698 | -51.61524 | 39998 ft | 491 kts | 209° |
| 2026-04-28 15:15 | -7.31656 | -51.64907 | 39997 ft | 491 kts | 209° |
| 2026-04-28 15:16 | -7.37608 | -51.68278 | 40002 ft | 490 kts | 209° |
| 2026-04-28 15:16 | -7.43560 | -51.71648 | 39995 ft | 490 kts | 209° |
| 2026-04-28 15:17 | -7.49501 | -51.75013 | 40002 ft | 490 kts | 209° |
| 2026-04-28 15:17 | -7.55446 | -51.78382 | 40002 ft | 489 kts | 209° |
| 2026-04-28 15:18 | -7.61377 | -51.81745 | 40002 ft | 489 kts | 209° |
| 2026-04-28 15:18 | -7.67312 | -51.85111 | 40003 ft | 489 kts | 209° |
| 2026-04-28 15:19 | -7.73246 | -51.88477 | 40003 ft | 489 kts | 209° |
| 2026-04-28 15:19 | -7.79181 | -51.91846 | 40002 ft | 489 kts | 209° |
| 2026-04-28 15:20 | -7.85080 | -51.95194 | 40004 ft | 490 kts | 209° |
| 2026-04-28 15:20 | -7.91019 | -51.98566 | 40002 ft | 490 kts | 209° |
| 2026-04-28 15:21 | -7.96951 | -52.01937 | 39998 ft | 490 kts | 209° |
| 2026-04-28 15:21 | -8.02894 | -52.05316 | 40004 ft | 490 kts | 208° |
| 2026-04-28 15:22 | -8.08830 | -52.08691 | 40006 ft | 490 kts | 209° |
| 2026-04-28 15:22 | -8.14759 | -52.12067 | 40011 ft | 490 kts | 208° |
| 2026-04-28 15:23 | -8.20695 | -52.15440 | 40009 ft | 490 kts | 208° |
| 2026-04-28 15:23 | -8.26634 | -52.18815 | 40001 ft | 489 kts | 208° |
| 2026-04-28 15:24 | -8.32567 | -52.22192 | 40004 ft | 489 kts | 208° |
| 2026-04-28 15:24 | -8.38503 | -52.25572 | 40003 ft | 489 kts | 208° |
| 2026-04-28 15:25 | -8.44432 | -52.28951 | 40002 ft | 489 kts | 208° |
| 2026-04-28 15:25 | -8.50367 | -52.32335 | 40000 ft | 489 kts | 208° |
| 2026-04-28 15:26 | -8.56261 | -52.35696 | 39999 ft | 489 kts | 208° |
| 2026-04-28 15:26 | -8.62186 | -52.39088 | 40002 ft | 489 kts | 209° |
| 2026-04-28 15:27 | -8.68107 | -52.42489 | 40001 ft | 489 kts | 209° |
| 2026-04-28 15:27 | -8.74034 | -52.45895 | 39997 ft | 489 kts | 209° |
| 2026-04-28 15:28 | -8.79955 | -52.49298 | 40000 ft | 490 kts | 209° |
| 2026-04-28 15:28 | -8.85853 | -52.52687 | 40003 ft | 490 kts | 209° |
| 2026-04-28 15:29 | -8.91803 | -52.56108 | 40007 ft | 490 kts | 209° |
| 2026-04-28 15:29 | -8.97695 | -52.59496 | 39996 ft | 490 kts | 209° |
| 2026-04-28 15:30 | -9.03659 | -52.62930 | 40007 ft | 490 kts | 209° |
| 2026-04-28 15:30 | -9.09540 | -52.66314 | 40002 ft | 490 kts | 209° |
| 2026-04-28 15:31 | -9.15460 | -52.69722 | 40011 ft | 490 kts | 209° |
| 2026-04-28 15:31 | -9.21382 | -52.73134 | 40017 ft | 490 kts | 209° |
| 2026-04-28 15:32 | -9.27312 | -52.76554 | 40016 ft | 490 kts | 209° |
| 2026-04-28 15:32 | -9.33237 | -52.79971 | 40007 ft | 490 kts | 209° |
| 2026-04-28 15:33 | -9.39162 | -52.83387 | 40014 ft | 490 kts | 209° |
| 2026-04-28 15:33 | -9.45083 | -52.86805 | 40011 ft | 490 kts | 209° |
| 2026-04-28 15:34 | -9.50995 | -52.90217 | 40015 ft | 489 kts | 209° |
| 2026-04-28 15:34 | -9.56909 | -52.93632 | 40017 ft | 489 kts | 209° |
| 2026-04-28 15:35 | -9.62825 | -52.97050 | 40016 ft | 489 kts | 209° |
| 2026-04-28 15:35 | -9.71657 | -53.02155 | 40012 ft | 489 kts | 209° |
| 2026-04-28 15:36 | -9.77574 | -53.05578 | 40018 ft | 489 kts | 209° |
| 2026-04-28 15:36 | -9.83490 | -53.09001 | 40017 ft | 490 kts | 209° |
| 2026-04-28 15:37 | -9.89406 | -53.12426 | 40019 ft | 490 kts | 209° |
| 2026-04-28 15:37 | -9.94363 | -53.15296 | 40017 ft | 490 kts | 209° |
| 2026-04-28 15:38 | -10.01253 | -53.19287 | 40019 ft | 490 kts | 209° |
| 2026-04-28 15:38 | -10.07166 | -53.22715 | 40018 ft | 490 kts | 209° |
| 2026-04-28 15:39 | -10.13079 | -53.26143 | 40018 ft | 490 kts | 209° |
| 2026-04-28 15:39 | -10.18998 | -53.29577 | 40019 ft | 489 kts | 209° |
| 2026-04-28 15:40 | -10.24913 | -53.33010 | 40013 ft | 489 kts | 209° |
| 2026-04-28 15:40 | -10.30829 | -53.36444 | 40017 ft | 489 kts | 210° |
| 2026-04-28 15:41 | -10.36703 | -53.39856 | 40019 ft | 490 kts | 210° |
| 2026-04-28 15:41 | -10.42617 | -53.43294 | 40016 ft | 490 kts | 210° |
| 2026-04-28 15:42 | -10.48528 | -53.46733 | 40015 ft | 490 kts | 210° |
| 2026-04-28 15:42 | -10.54447 | -53.50177 | 40019 ft | 490 kts | 210° |
| 2026-04-28 15:43 | -10.60360 | -53.53618 | 40020 ft | 490 kts | 210° |
| 2026-04-28 15:43 | -10.66264 | -53.57057 | 40014 ft | 489 kts | 210° |
| 2026-04-28 15:44 | -10.72171 | -53.60498 | 40010 ft | 489 kts | 210° |
| 2026-04-28 15:44 | -10.78077 | -53.63941 | 40006 ft | 489 kts | 210° |
| 2026-04-28 15:45 | -10.83986 | -53.67387 | 40013 ft | 489 kts | 210° |
| 2026-04-28 15:45 | -10.89892 | -53.70817 | 40010 ft | 489 kts | 209° |
| 2026-04-28 15:46 | -10.95832 | -53.74210 | 40017 ft | 489 kts | 209° |
| 2026-04-28 15:46 | -11.01771 | -53.77592 | 40011 ft | 489 kts | 209° |
| 2026-04-28 15:47 | -11.07712 | -53.80982 | 40013 ft | 489 kts | 209° |
| 2026-04-28 15:47 | -11.13641 | -53.84370 | 40014 ft | 489 kts | 209° |
| 2026-04-28 15:48 | -11.19572 | -53.87763 | 40012 ft | 489 kts | 209° |
| 2026-04-28 15:48 | -11.25464 | -53.91135 | 40013 ft | 489 kts | 209° |
| 2026-04-28 15:49 | -11.31402 | -53.94535 | 40018 ft | 489 kts | 209° |
| 2026-04-28 15:49 | -11.37327 | -53.97926 | 40011 ft | 489 kts | 209° |
| 2026-04-28 15:50 | -11.43635 | -54.00466 | 40015 ft | 489 kts | 193° |
| 2026-04-28 15:50 | -11.50392 | -54.00917 | 40014 ft | 489 kts | 174° |
| 2026-04-28 15:51 | -11.56969 | -53.99260 | 40014 ft | 490 kts | 162° |
| 2026-04-28 15:51 | -11.63432 | -53.96988 | 40014 ft | 490 kts | 161° |
| 2026-04-28 15:52 | -11.69861 | -53.94661 | 40011 ft | 490 kts | 161° |
| 2026-04-28 15:52 | -11.76296 | -53.92367 | 40011 ft | 490 kts | 161° |
| 2026-04-28 15:53 | -11.82747 | -53.90077 | 40010 ft | 490 kts | 161° |
| 2026-04-28 15:53 | -11.89192 | -53.87796 | 40009 ft | 491 kts | 161° |
| 2026-04-28 15:54 | -11.95610 | -53.85536 | 40013 ft | 491 kts | 161° |
| 2026-04-28 15:54 | -12.02067 | -53.83268 | 40009 ft | 491 kts | 161° |
| 2026-04-28 15:55 | -12.08527 | -53.80999 | 40009 ft | 491 kts | 161° |
| 2026-04-28 15:55 | -12.14980 | -53.78730 | 41559 ft | 491 kts | 161° |
| 2026-04-28 15:56 | -12.18208 | -53.77600 | 41323 ft | 491 kts | 161° |
| 2026-04-28 15:56 | -12.20395 | -53.76836 | 41157 ft | 491 kts | 161° |
| 2026-04-28 15:56 | -12.23629 | -53.75705 | 40912 ft | 492 kts | 161° |
| 2026-04-28 15:56 | -12.26873 | -53.74569 | 40663 ft | 492 kts | 161° |
| 2026-04-28 15:57 | -12.30114 | -53.73431 | 40415 ft | 493 kts | 161° |
| 2026-04-28 15:57 | -12.33314 | -53.72305 | 40171 ft | 493 kts | 161° |
| 2026-04-28 15:57 | -12.36556 | -53.71163 | 40014 ft | 492 kts | 161° |
| 2026-04-28 15:57 | -12.39788 | -53.70020 | 39999 ft | 492 kts | 161° |
| 2026-04-28 15:58 | -12.46263 | -53.67722 | 39999 ft | 492 kts | 161° |
| 2026-04-28 15:58 | -12.52736 | -53.65430 | 40000 ft | 492 kts | 161° |
| 2026-04-28 15:59 | -12.59217 | -53.63141 | 39999 ft | 492 kts | 161° |
| 2026-04-28 15:59 | -12.65691 | -53.60856 | 40001 ft | 492 kts | 161° |
| 2026-04-28 16:00 | -12.72176 | -53.58566 | 40001 ft | 492 kts | 161° |
| 2026-04-28 16:00 | -12.78651 | -53.56277 | 39999 ft | 492 kts | 161° |
| 2026-04-28 16:01 | -12.85131 | -53.53985 | 40000 ft | 492 kts | 161° |
| 2026-04-28 16:01 | -12.91600 | -53.51696 | 40002 ft | 492 kts | 161° |
| 2026-04-28 16:02 | -12.98108 | -53.49710 | 40002 ft | 492 kts | 167° |
| 2026-04-28 16:02 | -13.04790 | -53.48193 | 40002 ft | 492 kts | 168° |
| 2026-04-28 16:03 | -13.11589 | -53.47554 | 39999 ft | 491 kts | 183° |
| 2026-04-28 16:03 | -13.18254 | -53.48971 | 40003 ft | 491 kts | 199° |
| 2026-04-28 16:04 | -13.24589 | -53.51593 | 39999 ft | 491 kts | 204° |
| 2026-04-28 16:04 | -13.30823 | -53.54465 | 40001 ft | 491 kts | 204° |
| 2026-04-28 16:05 | -13.37020 | -53.57307 | 39999 ft | 491 kts | 204° |
| 2026-04-28 16:05 | -13.43277 | -53.60127 | 40002 ft | 491 kts | 203° |
| 2026-04-28 16:06 | -13.49543 | -53.62925 | 40000 ft | 491 kts | 203° |
| 2026-04-28 16:06 | -13.55816 | -53.65723 | 40001 ft | 491 kts | 203° |
| 2026-04-28 16:07 | -13.62084 | -53.68521 | 40000 ft | 491 kts | 203° |
| 2026-04-28 16:08 | -13.71484 | -53.72724 | 39999 ft | 491 kts | 203° |
| 2026-04-28 16:08 | -13.77745 | -53.75525 | 40000 ft | 491 kts | 203° |
| 2026-04-28 16:09 | -13.87151 | -53.79738 | 39999 ft | 491 kts | 203° |
| 2026-04-28 16:10 | -13.96508 | -53.83931 | 40002 ft | 491 kts | 203° |
| 2026-04-28 16:10 | -14.05794 | -53.88097 | 40002 ft | 491 kts | 203° |
| 2026-04-28 16:11 | -14.18282 | -53.93705 | 40002 ft | 491 kts | 203° |
| 2026-04-28 16:12 | -14.27669 | -53.97925 | 39999 ft | 491 kts | 203° |
| 2026-04-28 16:13 | -14.37074 | -54.02156 | 40001 ft | 491 kts | 203° |
| 2026-04-28 16:14 | -14.49590 | -54.07794 | 39999 ft | 491 kts | 203° |
| 2026-04-28 16:15 | -14.62127 | -54.13447 | 39999 ft | 491 kts | 203° |
| 2026-04-28 16:15 | -14.68383 | -54.16271 | 39999 ft | 491 kts | 203° |
| 2026-04-28 16:16 | -14.77776 | -54.20514 | 40001 ft | 491 kts | 203° |
| 2026-04-28 16:17 | -14.87129 | -54.24744 | 40002 ft | 491 kts | 203° |
| 2026-04-28 16:17 | -14.93384 | -54.27574 | 39999 ft | 491 kts | 203° |
| 2026-04-28 16:18 | -14.99651 | -54.30407 | 39999 ft | 491 kts | 203° |
| 2026-04-28 16:18 | -15.05908 | -54.33239 | 39999 ft | 491 kts | 203° |
| 2026-04-28 16:19 | -15.12176 | -54.36080 | 39999 ft | 491 kts | 203° |
| 2026-04-28 16:19 | -15.18436 | -54.38920 | 40001 ft | 491 kts | 203° |
| 2026-04-28 16:20 | -15.24690 | -54.41759 | 40000 ft | 491 kts | 203° |
| 2026-04-28 16:20 | -15.30945 | -54.44601 | 40001 ft | 491 kts | 203° |
| 2026-04-28 16:21 | -15.37200 | -54.47445 | 40000 ft | 491 kts | 203° |
| 2026-04-28 16:21 | -15.43459 | -54.50292 | 40001 ft | 491 kts | 203° |
| 2026-04-28 16:22 | -15.49678 | -54.53123 | 40000 ft | 491 kts | 203° |
| 2026-04-28 16:22 | -15.55933 | -54.55972 | 40000 ft | 491 kts | 203° |
| 2026-04-28 16:23 | -15.62191 | -54.58824 | 39999 ft | 491 kts | 203° |
| 2026-04-28 16:23 | -15.68443 | -54.61675 | 40000 ft | 491 kts | 204° |
| 2026-04-28 16:24 | -15.74694 | -54.64533 | 40000 ft | 491 kts | 204° |
| 2026-04-28 16:24 | -15.80948 | -54.67394 | 40000 ft | 491 kts | 204° |
| 2026-04-28 16:25 | -15.87203 | -54.70254 | 40000 ft | 491 kts | 204° |
| 2026-04-28 16:25 | -15.93396 | -54.73086 | 40003 ft | 491 kts | 204° |
| 2026-04-28 16:26 | -15.99651 | -54.75949 | 40001 ft | 491 kts | 204° |
| 2026-04-28 16:26 | -16.05902 | -54.78812 | 40001 ft | 491 kts | 204° |
| 2026-04-28 16:27 | -16.12160 | -54.81679 | 40002 ft | 491 kts | 204° |
| 2026-04-28 16:28 | -16.21540 | -54.85981 | 39999 ft | 491 kts | 204° |
| 2026-04-28 16:28 | -16.27787 | -54.88849 | 40000 ft | 491 kts | 204° |
| 2026-04-28 16:29 | -16.37166 | -54.93159 | 40001 ft | 491 kts | 204° |
| 2026-04-28 16:30 | -16.46540 | -54.97470 | 40000 ft | 491 kts | 204° |
| 2026-04-28 16:30 | -16.52750 | -55.00329 | 39999 ft | 491 kts | 204° |
| 2026-04-28 16:31 | -16.59001 | -55.03209 | 40000 ft | 491 kts | 204° |
| 2026-04-28 16:31 | -16.65247 | -55.06089 | 39999 ft | 491 kts | 204° |
| 2026-04-28 16:32 | -16.71498 | -55.08972 | 40000 ft | 491 kts | 204° |
| 2026-04-28 16:32 | -16.80869 | -55.13300 | 40000 ft | 491 kts | 204° |
| 2026-04-28 16:33 | -16.85047 | -55.15231 | 40000 ft | 491 kts | 204° |
| 2026-04-28 16:33 | -16.93364 | -55.19079 | 40000 ft | 491 kts | 204° |
| 2026-04-28 16:34 | -16.99614 | -55.21977 | 40000 ft | 491 kts | 204° |
| 2026-04-28 16:34 | -17.05866 | -55.24875 | 39999 ft | 491 kts | 204° |
| 2026-04-28 16:35 | -17.12112 | -55.27771 | 40000 ft | 491 kts | 204° |
| 2026-04-28 16:35 | -17.18360 | -55.30669 | 40000 ft | 491 kts | 204° |
| 2026-04-28 16:36 | -17.24603 | -55.33567 | 40002 ft | 491 kts | 204° |
| 2026-04-28 16:36 | -17.30809 | -55.36450 | 39999 ft | 491 kts | 204° |
| 2026-04-28 16:37 | -17.37053 | -55.39353 | 39999 ft | 491 kts | 204° |
| 2026-04-28 16:38 | -17.46417 | -55.43711 | 40001 ft | 491 kts | 204° |
| 2026-04-28 16:38 | -17.52660 | -55.46619 | 39999 ft | 491 kts | 204° |
| 2026-04-28 16:39 | -17.58908 | -55.49531 | 40002 ft | 491 kts | 204° |
| 2026-04-28 16:39 | -17.64036 | -55.52074 | 40000 ft | 491 kts | 210° |
| 2026-04-28 16:40 | -17.70637 | -55.56776 | 39999 ft | 491 kts | 211° |
| 2026-04-28 16:40 | -17.76872 | -55.59640 | 40003 ft | 491 kts | 196° |
| 2026-04-28 16:41 | -17.83499 | -55.61359 | 40000 ft | 491 kts | 193° |
| 2026-04-28 16:41 | -17.90191 | -55.62846 | 40000 ft | 491 kts | 192° |
| 2026-04-28 16:42 | -17.96880 | -55.64306 | 40000 ft | 491 kts | 192° |
| 2026-04-28 16:42 | -18.03444 | -55.65765 | 40002 ft | 491 kts | 192° |
| 2026-04-28 16:43 | -18.08995 | -55.67013 | 40000 ft | 491 kts | 192° |
| 2026-04-28 16:43 | -18.15683 | -55.68524 | 40000 ft | 491 kts | 192° |
| 2026-04-28 16:44 | -18.22366 | -55.70034 | 40001 ft | 491 kts | 192° |
| 2026-04-28 16:44 | -18.29054 | -55.71546 | 39999 ft | 491 kts | 192° |
| 2026-04-28 16:45 | -18.35737 | -55.73057 | 40002 ft | 491 kts | 192° |
| 2026-04-28 16:45 | -18.42383 | -55.74562 | 40000 ft | 491 kts | 192° |
| 2026-04-28 16:46 | -18.49110 | -55.76085 | 40000 ft | 491 kts | 192° |
| 2026-04-28 16:46 | -18.55750 | -55.77590 | 39999 ft | 491 kts | 192° |
| 2026-04-28 16:47 | -18.62433 | -55.79107 | 40001 ft | 491 kts | 192° |
| 2026-04-28 16:47 | -18.69161 | -55.80634 | 40000 ft | 491 kts | 192° |
| 2026-04-28 16:48 | -18.75798 | -55.82142 | 40000 ft | 491 kts | 192° |
| 2026-04-28 16:48 | -18.82487 | -55.83664 | 40001 ft | 491 kts | 193° |
| 2026-04-28 16:49 | -18.89166 | -55.85184 | 40000 ft | 491 kts | 192° |
| 2026-04-28 16:49 | -18.95843 | -55.86705 | 40000 ft | 491 kts | 193° |
| 2026-04-28 16:50 | -19.02529 | -55.88229 | 40000 ft | 491 kts | 193° |
| 2026-04-28 16:50 | -19.09215 | -55.89754 | 40000 ft | 491 kts | 193° |
| 2026-04-28 16:51 | -19.15894 | -55.91279 | 40000 ft | 491 kts | 193° |
| 2026-04-28 16:51 | -19.22579 | -55.92806 | 40000 ft | 491 kts | 193° |
| 2026-04-28 16:52 | -19.29266 | -55.94336 | 40002 ft | 491 kts | 193° |
| 2026-04-28 16:52 | -19.35946 | -55.95866 | 40000 ft | 491 kts | 193° |
| 2026-04-28 16:53 | -19.42628 | -55.97397 | 40002 ft | 491 kts | 193° |
| 2026-04-28 16:53 | -19.49308 | -55.98929 | 40001 ft | 491 kts | 193° |
| 2026-04-28 16:54 | -19.55997 | -56.00465 | 39999 ft | 491 kts | 193° |
| 2026-04-28 16:54 | -19.62634 | -56.01989 | 39999 ft | 491 kts | 193° |
| 2026-04-28 16:55 | -19.68054 | -56.03235 | 40001 ft | 491 kts | 193° |
| 2026-04-28 16:57 | -19.72994 | -56.04371 | 40001 ft | 491 kts | 193° |
| 2026-04-28 16:57 | -19.79676 | -56.05909 | 40003 ft | 491 kts | 193° |
| 2026-04-28 16:58 | -19.86360 | -56.07449 | 40000 ft | 491 kts | 193° |
| 2026-04-28 16:58 | -19.93042 | -56.08990 | 39999 ft | 491 kts | 193° |
| 2026-04-28 16:59 | -19.99722 | -56.10532 | 40000 ft | 491 kts | 193° |
| 2026-04-28 16:59 | -20.06403 | -56.12076 | 39999 ft | 491 kts | 193° |
| 2026-04-28 17:00 | -20.13039 | -56.13610 | 40001 ft | 491 kts | 193° |
| 2026-04-28 17:00 | -20.19718 | -56.15156 | 39998 ft | 491 kts | 193° |
| 2026-04-28 17:01 | -20.26399 | -56.16703 | 39999 ft | 491 kts | 193° |
| 2026-04-28 17:01 | -20.33087 | -56.18252 | 40001 ft | 491 kts | 193° |
| 2026-04-28 17:02 | -20.39766 | -56.19803 | 40000 ft | 491 kts | 193° |
| 2026-04-28 17:02 | -20.46446 | -56.21356 | 40000 ft | 491 kts | 193° |
| 2026-04-28 17:03 | -20.56463 | -56.23684 | 40001 ft | 491 kts | 193° |
| 2026-04-28 17:03 | -20.63149 | -56.25238 | 40000 ft | 491 kts | 193° |
| 2026-04-28 17:04 | -20.73166 | -56.27572 | 40001 ft | 491 kts | 193° |
| 2026-04-28 17:05 | -20.83157 | -56.29980 | 40000 ft | 491 kts | 193° |
| 2026-04-28 17:06 | -20.93047 | -56.32639 | 40001 ft | 491 kts | 194° |
| 2026-04-28 17:06 | -21.03012 | -56.35334 | 40000 ft | 491 kts | 194° |
| 2026-04-28 17:07 | -21.09636 | -56.37115 | 40000 ft | 491 kts | 194° |
| 2026-04-28 17:07 | -21.16274 | -56.38898 | 40000 ft | 491 kts | 194° |
| 2026-04-28 17:08 | -21.22904 | -56.40683 | 40000 ft | 491 kts | 194° |
| 2026-04-28 17:08 | -21.29542 | -56.42471 | 40000 ft | 491 kts | 194° |
| 2026-04-28 17:09 | -21.36165 | -56.44260 | 39999 ft | 491 kts | 194° |
| 2026-04-28 17:09 | -21.42797 | -56.46051 | 39999 ft | 491 kts | 194° |
| 2026-04-28 17:10 | -21.49425 | -56.47841 | 39999 ft | 491 kts | 194° |
| 2026-04-28 17:10 | -21.56057 | -56.49635 | 40000 ft | 491 kts | 194° |
| 2026-04-28 17:11 | -21.62643 | -56.51415 | 40000 ft | 491 kts | 194° |
| 2026-04-28 17:11 | -21.69270 | -56.53209 | 39999 ft | 491 kts | 194° |
| 2026-04-28 17:12 | -21.75900 | -56.55007 | 40000 ft | 491 kts | 194° |
| 2026-04-28 17:12 | -21.82525 | -56.56805 | 40000 ft | 491 kts | 194° |
| 2026-04-28 17:13 | -21.89173 | -56.58612 | 39999 ft | 491 kts | 194° |
| 2026-04-28 17:13 | -21.95112 | -56.60227 | 40002 ft | 491 kts | 194° |
| 2026-04-28 17:14 | -22.01740 | -56.62034 | 40001 ft | 491 kts | 194° |
| 2026-04-28 17:14 | -22.08362 | -56.63838 | 40000 ft | 491 kts | 194° |
| 2026-04-28 17:15 | -22.14949 | -56.65635 | 40001 ft | 491 kts | 194° |
| 2026-04-28 17:15 | -22.21560 | -56.67440 | 40000 ft | 491 kts | 194° |
| 2026-04-28 17:16 | -22.28199 | -56.69255 | 40002 ft | 491 kts | 194° |
| 2026-04-28 17:16 | -22.34831 | -56.71068 | 40000 ft | 491 kts | 194° |
| 2026-04-28 17:17 | -22.41460 | -56.72881 | 39999 ft | 491 kts | 194° |
| 2026-04-28 17:17 | -22.48088 | -56.74696 | 39999 ft | 491 kts | 194° |
| 2026-04-28 17:18 | -22.54713 | -56.76514 | 39999 ft | 491 kts | 194° |
| 2026-04-28 17:18 | -22.61338 | -56.78333 | 40002 ft | 491 kts | 194° |
| 2026-04-28 17:19 | -22.67963 | -56.80154 | 40002 ft | 491 kts | 194° |
| 2026-04-28 17:19 | -22.74593 | -56.81979 | 40000 ft | 491 kts | 194° |
| 2026-04-28 17:20 | -22.80106 | -56.83497 | 39999 ft | 491 kts | 194° |
| 2026-04-28 17:20 | -22.87804 | -56.85620 | 40000 ft | 491 kts | 194° |
| 2026-04-28 17:21 | -22.94433 | -56.87449 | 39999 ft | 491 kts | 194° |
| 2026-04-28 17:22 | -23.04375 | -56.90197 | 40000 ft | 491 kts | 194° |
| 2026-04-28 17:22 | -23.10984 | -56.92026 | 40000 ft | 491 kts | 194° |
| 2026-04-28 17:23 | -23.20941 | -56.94784 | 40002 ft | 491 kts | 194° |
| 2026-04-28 17:23 | -23.27564 | -56.96621 | 40000 ft | 491 kts | 194° |
| 2026-04-28 17:24 | -23.34189 | -56.98460 | 40000 ft | 491 kts | 194° |
| 2026-04-28 17:24 | -23.40813 | -57.00304 | 40000 ft | 491 kts | 194° |
| 2026-04-28 17:25 | -23.50706 | -57.03059 | 40001 ft | 491 kts | 194° |
| 2026-04-28 17:26 | -23.57322 | -57.04901 | 39999 ft | 491 kts | 194° |
| 2026-04-28 17:26 | -23.63948 | -57.06749 | 39999 ft | 491 kts | 194° |
| 2026-04-28 17:27 | -23.70570 | -57.08597 | 39999 ft | 491 kts | 194° |
| 2026-04-28 17:27 | -23.77198 | -57.10450 | 40000 ft | 491 kts | 194° |
| 2026-04-28 17:28 | -23.83822 | -57.12304 | 40000 ft | 491 kts | 194° |
| 2026-04-28 17:28 | -23.93754 | -57.15087 | 40000 ft | 491 kts | 194° |
| 2026-04-28 17:29 | -24.00362 | -57.16941 | 40002 ft | 491 kts | 194° |
| 2026-04-28 17:30 | -24.10261 | -57.19723 | 39999 ft | 491 kts | 194° |
| 2026-04-28 17:30 | -24.20193 | -57.22519 | 40000 ft | 491 kts | 194° |
| 2026-04-28 17:31 | -24.30123 | -57.25317 | 40000 ft | 491 kts | 194° |
| 2026-04-28 17:32 | -24.40051 | -57.28120 | 40000 ft | 491 kts | 194° |
| 2026-04-28 17:32 | -24.45553 | -57.29676 | 40001 ft | 491 kts | 194° |
| 2026-04-28 17:33 | -24.52170 | -57.31548 | 39999 ft | 491 kts | 194° |
| 2026-04-28 17:33 | -24.57724 | -57.33121 | 39999 ft | 491 kts | 194° |
| 2026-04-28 17:34 | -24.65413 | -57.35302 | 40000 ft | 491 kts | 194° |
| 2026-04-28 17:34 | -24.72063 | -57.37190 | 39999 ft | 491 kts | 194° |
| 2026-04-28 17:35 | -24.78679 | -57.39070 | 39999 ft | 491 kts | 194° |
| 2026-04-28 17:35 | -24.85295 | -57.40952 | 40000 ft | 491 kts | 194° |
| 2026-04-28 17:36 | -24.91917 | -57.42839 | 40000 ft | 491 kts | 194° |
| 2026-04-28 17:36 | -24.98532 | -57.44726 | 40000 ft | 491 kts | 194° |
| 2026-04-28 17:37 | -25.05105 | -57.46602 | 40001 ft | 491 kts | 194° |
| 2026-04-28 17:37 | -25.11719 | -57.48492 | 40000 ft | 491 kts | 194° |
| 2026-04-28 17:38 | -25.18384 | -57.50399 | 39999 ft | 491 kts | 194° |
| 2026-04-28 17:38 | -25.25005 | -57.51970 | 40001 ft | 491 kts | 186° |
| 2026-04-28 17:39 | -25.31838 | -57.52361 | 39999 ft | 491 kts | 182° |
| 2026-04-28 17:40 | -25.42101 | -57.52526 | 40001 ft | 492 kts | 181° |
| 2026-04-28 17:40 | -25.48942 | -57.52597 | 40001 ft | 492 kts | 181° |
| 2026-04-28 17:41 | -25.55826 | -57.52679 | 40001 ft | 492 kts | 181° |
| 2026-04-28 17:41 | -25.62619 | -57.52768 | 39999 ft | 492 kts | 181° |
| 2026-04-28 17:42 | -25.69454 | -57.52862 | 39998 ft | 492 kts | 181° |
| 2026-04-28 17:42 | -25.76306 | -57.52955 | 40000 ft | 492 kts | 181° |
| 2026-04-28 17:43 | -25.83142 | -57.53048 | 40001 ft | 492 kts | 181° |
| 2026-04-28 17:43 | -25.89986 | -57.53141 | 40001 ft | 492 kts | 181° |
| 2026-04-28 17:44 | -25.96832 | -57.53235 | 39999 ft | 492 kts | 181° |
| 2026-04-28 17:44 | -26.03673 | -57.53329 | 40001 ft | 492 kts | 181° |
| 2026-04-28 17:45 | -26.10511 | -57.53419 | 39999 ft | 492 kts | 181° |
| 2026-04-28 17:45 | -26.17353 | -57.53493 | 40001 ft | 492 kts | 181° |
| 2026-04-28 17:46 | -26.24196 | -57.53563 | 40001 ft | 492 kts | 181° |
| 2026-04-28 17:46 | -26.31033 | -57.53635 | 40001 ft | 492 kts | 181° |
| 2026-04-28 17:47 | -26.37874 | -57.53709 | 40002 ft | 492 kts | 181° |
| 2026-04-28 17:47 | -26.44716 | -57.53782 | 40001 ft | 492 kts | 181° |
| 2026-04-28 17:48 | -26.51557 | -57.53856 | 40000 ft | 492 kts | 181° |
| 2026-04-28 17:48 | -26.58398 | -57.53930 | 40000 ft | 492 kts | 181° |
| 2026-04-28 17:49 | -26.65243 | -57.54004 | 40001 ft | 492 kts | 181° |
| 2026-04-28 17:49 | -26.72078 | -57.54078 | 39999 ft | 492 kts | 181° |
| 2026-04-28 17:50 | -26.78928 | -57.54152 | 39999 ft | 492 kts | 181° |
| 2026-04-28 17:50 | -26.85715 | -57.54229 | 40001 ft | 492 kts | 181° |
| 2026-04-28 17:51 | -26.92556 | -57.54374 | 40001 ft | 492 kts | 181° |
| 2026-04-28 17:51 | -26.99395 | -57.54561 | 40001 ft | 492 kts | 181° |
| 2026-04-28 17:52 | -27.06238 | -57.54762 | 40001 ft | 492 kts | 181° |
| 2026-04-28 17:52 | -27.16493 | -57.55063 | 40000 ft | 492 kts | 181° |
| 2026-04-28 17:53 | -27.23335 | -57.55262 | 39999 ft | 492 kts | 181° |
| 2026-04-28 17:53 | -27.30177 | -57.55461 | 40001 ft | 492 kts | 181° |
| 2026-04-28 17:54 | -27.37010 | -57.55660 | 40000 ft | 492 kts | 181° |
| 2026-04-28 17:54 | -27.44158 | -57.56254 | 40001 ft | 491 kts | 190° |
| 2026-04-28 17:55 | -27.50865 | -57.57802 | 40000 ft | 491 kts | 192° |
| 2026-04-28 17:55 | -27.57525 | -57.59517 | 40001 ft | 491 kts | 193° |
| 2026-04-28 17:56 | -27.64181 | -57.61268 | 39999 ft | 491 kts | 193° |
| 2026-04-28 17:56 | -27.70843 | -57.63014 | 39999 ft | 491 kts | 193° |
| 2026-04-28 17:57 | -27.77501 | -57.64751 | 39999 ft | 491 kts | 193° |
| 2026-04-28 17:57 | -27.84161 | -57.66487 | 40000 ft | 491 kts | 193° |
| 2026-04-28 17:58 | -27.90821 | -57.68225 | 39999 ft | 491 kts | 193° |
| 2026-04-28 17:58 | -27.97482 | -57.69965 | 40002 ft | 491 kts | 193° |
| 2026-04-28 17:59 | -28.04140 | -57.71707 | 40001 ft | 491 kts | 193° |
| 2026-04-28 17:59 | -28.10799 | -57.73452 | 39999 ft | 491 kts | 193° |
| 2026-04-28 18:00 | -28.17460 | -57.75200 | 39999 ft | 491 kts | 193° |
| 2026-04-28 18:00 | -28.24121 | -57.76951 | 39999 ft | 491 kts | 193° |
| 2026-04-28 18:01 | -28.30780 | -57.78701 | 40000 ft | 491 kts | 193° |
| 2026-04-28 18:01 | -28.37443 | -57.80430 | 39999 ft | 491 kts | 193° |
| 2026-04-28 18:02 | -28.42983 | -57.81861 | 40001 ft | 491 kts | 192° |
| 2026-04-28 18:02 | -28.49648 | -57.83583 | 39999 ft | 491 kts | 193° |
| 2026-04-28 18:03 | -28.56316 | -57.85310 | 39999 ft | 491 kts | 193° |
| 2026-04-28 18:03 | -28.64062 | -57.87321 | 39999 ft | 491 kts | 193° |
| 2026-04-28 18:04 | -28.69642 | -57.88773 | 40002 ft | 491 kts | 193° |
| 2026-04-28 18:04 | -28.76309 | -57.90509 | 39999 ft | 491 kts | 193° |
| 2026-04-28 18:05 | -28.82975 | -57.92247 | 40000 ft | 491 kts | 193° |
| 2026-04-28 18:05 | -28.89631 | -57.93985 | 39999 ft | 491 kts | 193° |
| 2026-04-28 18:06 | -28.96298 | -57.95728 | 40001 ft | 491 kts | 193° |
| 2026-04-28 18:06 | -29.02962 | -57.97472 | 39999 ft | 491 kts | 193° |
| 2026-04-28 18:07 | -29.09629 | -57.99220 | 40001 ft | 491 kts | 193° |
| 2026-04-28 18:07 | -29.16256 | -58.00959 | 39999 ft | 491 kts | 193° |
| 2026-04-28 18:08 | -29.22919 | -58.02710 | 40001 ft | 491 kts | 193° |
| 2026-04-28 18:08 | -29.29578 | -58.04463 | 39999 ft | 491 kts | 193° |
| 2026-04-28 18:09 | -29.36244 | -58.06219 | 40000 ft | 491 kts | 193° |
| 2026-04-28 18:09 | -29.42918 | -58.07957 | 39999 ft | 491 kts | 192° |
| 2026-04-28 18:10 | -29.49566 | -58.09460 | 40001 ft | 491 kts | 191° |
| 2026-04-28 18:10 | -29.56349 | -58.10871 | 39999 ft | 491 kts | 191° |
| 2026-04-28 18:11 | -29.63084 | -58.12255 | 39999 ft | 491 kts | 191° |
| 2026-04-28 18:11 | -29.69811 | -58.13648 | 39999 ft | 491 kts | 191° |
| 2026-04-28 18:12 | -29.76500 | -58.15044 | 39999 ft | 491 kts | 191° |
| 2026-04-28 18:12 | -29.83235 | -58.16440 | 40000 ft | 491 kts | 190° |
| 2026-04-28 18:13 | -29.89978 | -58.17741 | 40002 ft | 491 kts | 189° |
| 2026-04-28 18:13 | -29.96725 | -58.19011 | 40000 ft | 491 kts | 189° |
| 2026-04-28 18:14 | -30.03474 | -58.20289 | 40001 ft | 491 kts | 190° |
| 2026-04-28 18:14 | -30.10219 | -58.21576 | 39999 ft | 491 kts | 190° |
| 2026-04-28 18:15 | -30.16965 | -58.22869 | 40001 ft | 491 kts | 190° |
| 2026-04-28 18:15 | -30.23705 | -58.24165 | 39999 ft | 491 kts | 190° |
| 2026-04-28 18:16 | -30.30435 | -58.25460 | 40002 ft | 491 kts | 190° |
| 2026-04-28 18:16 | -30.37179 | -58.26759 | 40002 ft | 491 kts | 190° |
| 2026-04-28 18:17 | -30.43924 | -58.28058 | 39999 ft | 491 kts | 190° |
| 2026-04-28 18:17 | -30.50668 | -58.29360 | 39999 ft | 491 kts | 190° |
| 2026-04-28 18:18 | -30.57409 | -58.30663 | 40001 ft | 491 kts | 190° |
| 2026-04-28 18:18 | -30.63012 | -58.31785 | 39999 ft | 491 kts | 190° |
| 2026-04-28 18:19 | -30.70823 | -58.33466 | 40001 ft | 491 kts | 191° |
| 2026-04-28 18:19 | -30.77539 | -58.34948 | 39999 ft | 491 kts | 191° |
| 2026-04-28 18:20 | -30.84256 | -58.36432 | 40001 ft | 491 kts | 191° |
| 2026-04-28 18:20 | -30.90977 | -58.37900 | 39999 ft | 491 kts | 190° |
| 2026-04-28 18:21 | -30.97714 | -58.39275 | 40001 ft | 491 kts | 190° |
| 2026-04-28 18:21 | -31.04448 | -58.40620 | 40000 ft | 491 kts | 190° |
| 2026-04-28 18:22 | -31.11194 | -58.41976 | 40001 ft | 491 kts | 190° |
| 2026-04-28 18:22 | -31.17924 | -58.43340 | 40000 ft | 491 kts | 190° |
| 2026-04-28 18:23 | -31.24656 | -58.44709 | 40001 ft | 491 kts | 190° |
| 2026-04-28 18:23 | -31.31395 | -58.46081 | 40001 ft | 491 kts | 190° |
| 2026-04-28 18:24 | -31.36966 | -58.47164 | 40095 ft | 483 kts | 199° |
| 2026-04-28 18:24 | -31.44598 | -58.48688 | 40098 ft | 476 kts | 200° |
| 2026-04-28 18:25 | -31.51116 | -58.50030 | 40094 ft | 475 kts | 200° |
| 2026-04-28 18:26 | -31.60886 | -58.52044 | 40092 ft | 475 kts | 199° |
| 2026-04-28 18:26 | -31.67406 | -58.53383 | 40091 ft | 476 kts | 199° |
| 2026-04-28 18:27 | -31.73924 | -58.54721 | 40089 ft | 476 kts | 199° |
| 2026-04-28 18:27 | -31.80454 | -58.56065 | 40092 ft | 476 kts | 199° |
| 2026-04-28 18:28 | -31.86964 | -58.57407 | 40087 ft | 475 kts | 199° |
| 2026-04-28 18:28 | -31.93479 | -58.58750 | 40089 ft | 475 kts | 199° |
| 2026-04-28 18:29 | -31.99976 | -58.60091 | 40081 ft | 474 kts | 199° |
| 2026-04-28 18:29 | -32.06477 | -58.61437 | 40081 ft | 474 kts | 198° |
| 2026-04-28 18:30 | -32.12962 | -58.62780 | 40080 ft | 473 kts | 198° |
| 2026-04-28 18:30 | -32.19392 | -58.64113 | 40077 ft | 471 kts | 198° |
| 2026-04-28 18:31 | -32.25850 | -58.65455 | 40077 ft | 470 kts | 198° |
| 2026-04-28 18:31 | -32.32313 | -58.66680 | 40070 ft | 474 kts | 194° |
| 2026-04-28 18:32 | -32.39006 | -58.66659 | 40071 ft | 484 kts | 186° |
| 2026-04-28 18:32 | -32.45738 | -58.66171 | 40068 ft | 485 kts | 185° |
| 2026-04-28 18:33 | -32.52461 | -58.65586 | 40070 ft | 484 kts | 185° |
| 2026-04-28 18:33 | -32.59176 | -58.65001 | 40070 ft | 483 kts | 185° |
| 2026-04-28 18:34 | -32.65882 | -58.64431 | 40063 ft | 482 kts | 185° |
| 2026-04-28 18:34 | -32.72531 | -58.63874 | 40061 ft | 482 kts | 185° |
| 2026-04-28 18:35 | -32.79208 | -58.63315 | 40062 ft | 481 kts | 185° |
| 2026-04-28 18:35 | -32.85865 | -58.62755 | 39686 ft | 477 kts | 185° |
| 2026-04-28 18:35 | -32.89165 | -58.62475 | 39185 ft | 475 kts | 185° |
| 2026-04-28 18:36 | -32.92457 | -58.62196 | 38642 ft | 473 kts | 185° |
| 2026-04-28 18:36 | -32.95733 | -58.61919 | 37967 ft | 472 kts | 185° |
| 2026-04-28 18:36 | -32.99009 | -58.61657 | 37268 ft | 469 kts | 185° |
| 2026-04-28 18:36 | -33.02245 | -58.61699 | 36555 ft | 462 kts | 191° |
| 2026-04-28 18:37 | -33.05443 | -58.61986 | 35854 ft | 460 kts | 192° |
| 2026-04-28 18:37 | -33.08632 | -58.62328 | 35140 ft | 460 kts | 193° |
| 2026-04-28 18:37 | -33.11819 | -58.62694 | 34441 ft | 460 kts | 193° |
| 2026-04-28 18:37 | -33.15003 | -58.63065 | 33671 ft | 460 kts | 192° |
| 2026-04-28 18:38 | -33.18191 | -58.63432 | 32864 ft | 460 kts | 192° |
| 2026-04-28 18:38 | -33.21370 | -58.63794 | 32185 ft | 460 kts | 192° |
| 2026-04-28 18:38 | -33.24581 | -58.64164 | 31223 ft | 466 kts | 192° |
| 2026-04-28 18:38 | -33.27828 | -58.64543 | 30039 ft | 472 kts | 191° |
| 2026-04-28 18:39 | -33.31111 | -58.64924 | 28861 ft | 474 kts | 191° |
| 2026-04-28 18:39 | -33.34382 | -58.65300 | 27947 ft | 470 kts | 191° |
| 2026-04-28 18:39 | -33.37558 | -58.65660 | 26923 ft | 453 kts | 191° |
| 2026-04-28 18:39 | -33.40711 | -58.66027 | 25887 ft | 456 kts | 191° |
| 2026-04-28 18:40 | -33.43854 | -58.66394 | 25103 ft | 445 kts | 191° |
| 2026-04-28 18:40 | -33.46872 | -58.66740 | 24230 ft | 429 kts | 191° |
| 2026-04-28 18:40 | -33.49828 | -58.67086 | 23351 ft | 426 kts | 190° |
| 2026-04-28 18:40 | -33.52768 | -58.67430 | 22436 ft | 422 kts | 190° |
| 2026-04-28 18:41 | -33.55675 | -58.67770 | 21529 ft | 418 kts | 190° |
| 2026-04-28 18:41 | -33.58426 | -58.68092 | 20688 ft | 414 kts | 190° |
| 2026-04-28 18:41 | -33.61275 | -58.68425 | 19836 ft | 409 kts | 190° |
| 2026-04-28 18:41 | -33.64064 | -58.68752 | 19012 ft | 406 kts | 190° |
| 2026-04-28 18:42 | -33.66894 | -58.69085 | 18177 ft | 402 kts | 190° |
| 2026-04-28 18:42 | -33.69630 | -58.69408 | 17271 ft | 398 kts | 190° |
| 2026-04-28 18:42 | -33.72369 | -58.69730 | 16382 ft | 394 kts | 190° |
| 2026-04-28 18:42 | -33.75084 | -58.70050 | 15511 ft | 389 kts | 190° |
| 2026-04-28 18:43 | -33.77768 | -58.70368 | 14673 ft | 385 kts | 190° |
| 2026-04-28 18:43 | -33.80419 | -58.70680 | 13845 ft | 382 kts | 189° |
| 2026-04-28 18:43 | -33.83048 | -58.70990 | 12935 ft | 377 kts | 189° |
| 2026-04-28 18:43 | -33.85643 | -58.71294 | 12040 ft | 372 kts | 189° |
| 2026-04-28 18:44 | -33.88204 | -58.71597 | 11181 ft | 367 kts | 189° |
| 2026-04-28 18:44 | -33.93018 | -58.72149 | 9456 ft | 327 kts | 188° |
| 2026-04-28 18:44 | -33.95221 | -58.72382 | 8735 ft | 306 kts | 188° |
| 2026-04-28 18:45 | -33.97246 | -58.72584 | 8383 ft | 279 kts | 188° |
| 2026-04-28 18:45 | -33.99106 | -58.72775 | 8101 ft | 263 kts | 189° |
| 2026-04-28 18:45 | -34.00950 | -58.72979 | 7849 ft | 267 kts | 188° |
| 2026-04-28 18:45 | -34.02802 | -58.73183 | 7584 ft | 268 kts | 188° |
| 2026-04-28 18:46 | -34.04664 | -58.73381 | 7391 ft | 270 kts | 188° |
| 2026-04-28 18:46 | -34.06533 | -58.73578 | 7185 ft | 268 kts | 188° |
| 2026-04-28 18:46 | -34.08379 | -58.73771 | 6940 ft | 266 kts | 188° |
| 2026-04-28 18:46 | -34.10221 | -58.73958 | 6690 ft | 265 kts | 187° |
| 2026-04-28 18:47 | -34.12054 | -58.74143 | 6439 ft | 262 kts | 188° |
| 2026-04-28 18:47 | -34.13870 | -58.74330 | 6183 ft | 262 kts | 187° |
| 2026-04-28 18:47 | -34.15685 | -58.74515 | 5963 ft | 261 kts | 187° |
| 2026-04-28 18:47 | -34.17469 | -58.74700 | 5719 ft | 259 kts | 187° |
| 2026-04-28 18:48 | -34.19250 | -58.74888 | 5454 ft | 256 kts | 187° |
| 2026-04-28 18:48 | -34.21028 | -58.75074 | 5249 ft | 258 kts | 187° |
| 2026-04-28 18:48 | -34.22806 | -58.75259 | 5052 ft | 254 kts | 187° |
| 2026-04-28 18:48 | -34.24485 | -58.75434 | 5002 ft | 256 kts | 187° |
| 2026-04-28 18:49 | -34.26265 | -58.75619 | 5006 ft | 256 kts | 187° |
| 2026-04-28 18:49 | -34.26865 | -58.75680 | 5005 ft | 256 kts | 187° |
| 2026-04-28 18:49 | -34.29808 | -58.75965 | 5009 ft | 256 kts | 186° |
| 2026-04-28 18:49 | -34.31591 | -58.76016 | 4998 ft | 258 kts | 180° |
| 2026-04-28 18:50 | -34.33371 | -58.75731 | 5005 ft | 260 kts | 170° |
| 2026-04-28 18:50 | -34.35104 | -58.75097 | 4997 ft | 261 kts | 163° |
| 2026-04-28 18:50 | -34.36806 | -58.74335 | 4991 ft | 261 kts | 162° |
| 2026-04-28 18:50 | -34.38503 | -58.73556 | 4998 ft | 261 kts | 162° |
| 2026-04-28 18:51 | -34.40203 | -58.72776 | 4994 ft | 261 kts | 162° |
| 2026-04-28 18:51 | -34.41901 | -58.72003 | 4996 ft | 261 kts | 162° |
| 2026-04-28 18:51 | -34.43028 | -58.71489 | 4995 ft | 261 kts | 162° |
| 2026-04-28 18:51 | -34.45302 | -58.70455 | 4994 ft | 261 kts | 161° |
| 2026-04-28 18:52 | -34.46423 | -58.69933 | 4997 ft | 261 kts | 161° |
| 2026-04-28 18:52 | -34.48118 | -58.69144 | 4994 ft | 261 kts | 161° |
| 2026-04-28 18:52 | -34.49810 | -58.68360 | 4995 ft | 261 kts | 162° |
| 2026-04-28 18:52 | -34.51508 | -58.67578 | 4996 ft | 261 kts | 162° |
| 2026-04-28 18:53 | -34.53204 | -58.66802 | 4993 ft | 261 kts | 162° |
| 2026-04-28 18:53 | -34.54901 | -58.66033 | 4994 ft | 261 kts | 162° |
| 2026-04-28 18:53 | -34.56606 | -58.65273 | 4997 ft | 261 kts | 163° |
| 2026-04-28 18:53 | -34.58316 | -58.64506 | 4993 ft | 261 kts | 162° |
| 2026-04-28 18:54 | -34.59895 | -58.63787 | 4991 ft | 261 kts | 162° |
| 2026-04-28 18:54 | -34.61599 | -58.63005 | 4994 ft | 261 kts | 162° |
| 2026-04-28 18:54 | -34.63301 | -58.62224 | 4994 ft | 261 kts | 162° |
| 2026-04-28 18:54 | -34.65005 | -58.61455 | 4894 ft | 261 kts | 163° |
| 2026-04-28 18:55 | -34.66691 | -58.60703 | 4709 ft | 255 kts | 162° |
| 2026-04-28 18:55 | -34.68369 | -58.59937 | 4591 ft | 259 kts | 161° |
| 2026-04-28 18:55 | -34.70051 | -58.59155 | 4503 ft | 259 kts | 162° |
| 2026-04-28 18:55 | -34.71724 | -58.58382 | 4372 ft | 258 kts | 162° |
| 2026-04-28 18:56 | -34.73393 | -58.57628 | 4323 ft | 260 kts | 163° |
| 2026-04-28 18:56 | -34.75071 | -58.56877 | 4181 ft | 256 kts | 163° |
| 2026-04-28 18:56 | -34.76774 | -58.56118 | 4091 ft | 258 kts | 163° |
| 2026-04-28 18:56 | -34.78430 | -58.55372 | 3980 ft | 255 kts | 163° |
| 2026-04-28 18:57 | -34.80102 | -58.54615 | 3905 ft | 257 kts | 163° |
| 2026-04-28 18:57 | -34.81766 | -58.53864 | 3803 ft | 253 kts | 163° |
| 2026-04-28 18:57 | -34.83451 | -58.53192 | 3710 ft | 255 kts | 166° |
| 2026-04-28 18:57 | -34.85145 | -58.52572 | 3639 ft | 250 kts | 167° |
| 2026-04-28 18:58 | -34.86771 | -58.51987 | 3516 ft | 239 kts | 167° |
| 2026-04-28 18:58 | -34.88333 | -58.51431 | 3401 ft | 229 kts | 167° |
| 2026-04-28 18:58 | -34.89826 | -58.50904 | 3271 ft | 219 kts | 168° |
| 2026-04-28 18:58 | -34.91264 | -58.50407 | 3172 ft | 210 kts | 169° |
| 2026-04-28 18:59 | -34.92645 | -58.49937 | 3079 ft | 200 kts | 168° |
| 2026-04-28 18:59 | -34.93937 | -58.49486 | 3037 ft | 187 kts | 168° |
| 2026-04-28 18:59 | -34.95154 | -58.49054 | 2912 ft | 177 kts | 169° |
| 2026-04-28 18:59 | -34.96303 | -58.48648 | 2798 ft | 168 kts | 169° |
| 2026-04-28 19:00 | -34.97446 | -58.48256 | 2726 ft | 178 kts | 169° |
| 2026-04-28 19:00 | -34.98670 | -58.47840 | 2649 ft | 185 kts | 169° |
| 2026-04-28 19:00 | -34.99914 | -58.47419 | 2526 ft | 187 kts | 169° |
| 2026-04-28 19:00 | -35.01167 | -58.46987 | 2400 ft | 188 kts | 169° |
| 2026-04-28 19:01 | -35.02425 | -58.46546 | 2277 ft | 188 kts | 169° |
| 2026-04-28 19:01 | -35.03684 | -58.46109 | 2203 ft | 189 kts | 169° |
| 2026-04-28 19:01 | -35.04947 | -58.45671 | 2190 ft | 189 kts | 169° |
| 2026-04-28 19:01 | -35.06209 | -58.45232 | 2204 ft | 188 kts | 168° |
| 2026-04-28 19:02 | -35.07466 | -58.44789 | 2206 ft | 187 kts | 168° |
| 2026-04-28 19:02 | -35.08737 | -58.44224 | 2199 ft | 207 kts | 158° |
| 2026-04-28 19:02 | -35.09878 | -58.43054 | 2200 ft | 224 kts | 131° |
| 2026-04-28 19:02 | -35.10450 | -58.41266 | 2180 ft | 231 kts | 98° |
| 2026-04-28 19:03 | -35.10216 | -58.39339 | 2189 ft | 233 kts | 68° |
| 2026-04-28 19:03 | -35.09250 | -58.37779 | 2199 ft | 232 kts | 36° |
| 2026-04-28 19:03 | -35.07808 | -58.36990 | 2207 ft | 228 kts | 7° |
| 2026-04-28 19:03 | -35.06265 | -58.37122 | 2206 ft | 222 kts | 338° |
| 2026-04-28 19:04 | -35.04982 | -58.38070 | 2204 ft | 214 kts | 312° |
| 2026-04-28 19:04 | -35.03988 | -58.39408 | 2201 ft | 212 kts | 305° |
| 2026-04-28 19:04 | -35.03062 | -58.40809 | 2213 ft | 209 kts | 305° |
| 2026-04-28 19:04 | -35.02193 | -58.42153 | 2177 ft | 194 kts | 306° |
| 2026-04-28 19:05 | -35.01381 | -58.43370 | 2176 ft | 174 kts | 307° |
| 2026-04-28 19:05 | -35.00646 | -58.44454 | 2173 ft | 162 kts | 307° |
| 2026-04-28 19:05 | -34.99955 | -58.45462 | 2172 ft | 147 kts | 307° |
| 2026-04-28 19:05 | -34.99330 | -58.46364 | 2166 ft | 131 kts | 308° |
| 2026-04-28 19:06 | -34.98621 | -58.46997 | 2170 ft | 126 kts | 326° |
| 2026-04-28 19:06 | -34.98093 | -58.47294 | 2171 ft | 127 kts | 331° |
| 2026-04-28 19:06 | -34.96964 | -58.47765 | 2166 ft | 129 kts | 336° |
| 2026-04-28 19:06 | -34.96098 | -58.48073 | 1845 ft | 136 kts | 338° |
| 2026-04-28 19:07 | -34.95183 | -58.48391 | 1546 ft | 134 kts | 338° |
| 2026-04-28 19:07 | -34.94302 | -58.48698 | 1385 ft | 131 kts | 339° |
| 2026-04-28 19:07 | -34.93425 | -58.49002 | 1264 ft | 131 kts | 339° |
| 2026-04-28 19:07 | -34.92546 | -58.49309 | 1162 ft | 131 kts | 339° |
| 2026-04-28 19:08 | -34.91677 | -58.49609 | 1052 ft | 130 kts | 338° |
| 2026-04-28 19:08 | -34.90813 | -58.49913 | 978 ft | 128 kts | 336° |
| 2026-04-28 19:08 | -34.89955 | -58.50215 | 972 ft | 129 kts | 337° |
| 2026-04-28 19:08 | -34.89094 | -58.50514 | 893 ft | 129 kts | 337° |
| 2026-04-28 19:09 | -34.88242 | -58.50814 | 784 ft | 126 kts | 337° |
| 2026-04-28 19:09 | -34.87405 | -58.51107 | 698 ft | 124 kts | 338° |
| 2026-04-28 19:09 | -34.86582 | -58.51394 | 598 ft | 123 kts | 338° |
| 2026-04-28 19:09 | -34.85764 | -58.51679 | 466 ft | 121 kts | 339° |
| 2026-04-28 19:10 | -34.84943 | -58.51969 | 368 ft | 121 kts | 342° |
| 2026-04-28 19:10 | -34.84141 | -58.52235 | 255 ft | 121 kts | 340° |
| 2026-04-28 19:10 | -34.83319 | -58.52513 | 112 ft | 120 kts | 342° |
| 2026-04-28 19:10 | -34.82544 | -58.52790 | 90 ft | 103 kts | 343° |
| 2026-04-28 19:11 | -34.82130 | -58.52939 | 88 ft | 32 kts | 341° |
| 2026-04-28 19:11 | -34.82085 | -58.52961 | 90 ft | 1 kts | 334° |
| 2026-04-28 19:11 | -34.82068 | -58.52972 | 91 ft | 6 kts | 333° |
| 2026-04-28 19:11 | -34.82055 | -58.52981 | 91 ft | 4 kts | 329° |
| 2026-04-28 19:12 | -34.82018 | -58.53015 | 91 ft | 9 kts | 318° |
| 2026-04-28 19:12 | -34.81971 | -58.53084 | 89 ft | 11 kts | 302° |
| 2026-04-28 19:12 | -34.81935 | -58.53170 | 85 ft | 13 kts | 296° |
| 2026-04-28 19:12 | -34.81877 | -58.53367 | 85 ft | 22 kts | 284° |
| 2026-04-28 19:13 | -34.81861 | -58.53469 | 85 ft | 4 kts | 277° |